OBBI/BAH METAR and TAF weather

Enter ICAO airport designator
Station Type Date Time Source
OBBI METAR 2022/06/25 22:00 UTC NOAA

OBBI 252200Z 31006KT CAVOK 34/24 Q0996 NOSIG


Station Type Date Time Source
OBBI Decoded METAR 2022/06/25 22:00 UTC NOAA

Bahrain International Airport , Bahrain (OBBI) 26-16N 050-39E 2M
Jun 25, 2022 - 06:00 PM EDT / 2022.06.25 2200 UTC
Wind: from the NW (310 degrees) at 7 MPH (6 KT):0
Visibility: greater than 7 mile(s):0
Temperature: 93 F (34 C)
Heat index: 104.5 F (40.3 C):1
Dew Point: 75 F (24 C)
Relative Humidity: 56%
Pressure (altimeter): 29.41 in. Hg (0996 hPa)
ob: OBBI 252200Z 31006KT CAVOK 34/24 Q0996 NOSIG
cycle: 22

Station Type Date Time Source
OBBI TAF 2022/06/25 18:00 UTC NOAA

TAF OBBI 251700Z 2518/2700 VRB05KT CAVOK
BECMG 2605/2607 34010KT
BECMG 2620/2622 32015G25KT

Example: see airport list